Time,TemperatureF,DewpointF,PressureIn,WindDirection,WindDirectionDegrees,WindSpeedMPH,WindSpeedGustMPH,Humidity,HourlyPrecipIn,Conditions,Clouds,dailyrainin,SolarRadiationWatts/m^2,SoftwareType,DateUTC
2013-06-26 00:30:00,47.0,47.0,-100.00,ESE,123,9.0,17.0,97,-99.99,,,-99.99,0.000000,,2013-06-26 07:30:00,
2013-06-26 01:22:00,47.0,47.0,-100.00,ESE,123,9.0,17.0,97,-99.99,,,-99.99,0.000000,,2013-06-26 08:22:00,
2013-06-26 01:30:00,47.0,47.0,-100.00,SE,124,11.0,20.0,97,-99.99,,,-99.99,0.000000,,2013-06-26 08:30:00,
2013-06-26 02:22:00,47.0,47.0,-100.00,SE,124,11.0,20.0,97,-99.99,,,-99.99,0.000000,,2013-06-26 09:22:00,
2013-06-26 02:30:00,47.0,47.0,-100.00,SE,126,10.0,16.0,97,-99.99,,,-99.99,0.000000,,2013-06-26 09:30:00,
2013-06-26 03:30:00,47.0,46.0,-100.00,SE,142,6.0,12.0,96,-99.99,,,-99.99,0.000000,,2013-06-26 10:30:00,
2013-06-26 04:22:00,47.0,46.0,-100.00,SE,142,6.0,12.0,96,-99.99,,,-99.99,0.000000,,2013-06-26 11:22:00,
2013-06-26 04:30:00,47.0,46.0,-100.00,SE,144,5.0,10.0,96,-99.99,,,-99.99,0.000000,,2013-06-26 11:30:00,
2013-06-26 05:30:00,47.0,46.0,-100.00,SSE,166,3.0,8.0,96,-99.99,,,-99.99,1.000000,,2013-06-26 12:30:00,
2013-06-26 06:22:00,47.0,46.0,-100.00,SSE,166,3.0,8.0,96,-99.99,,,-99.99,1.000000,,2013-06-26 13:22:00,
2013-06-26 06:30:00,47.0,45.0,-100.00,SE,127,7.0,11.0,95,-99.99,,,-99.99,13.000000,,2013-06-26 13:30:00,
2013-06-26 07:23:00,47.0,45.0,-100.00,SE,127,7.0,11.0,95,-99.99,,,-99.99,13.000000,,2013-06-26 14:23:00,
2013-06-26 07:30:00,50.0,47.0,-100.00,SE,136,6.0,10.0,92,-99.99,,,-99.99,239.000000,,2013-06-26 14:30:00,
2013-06-26 08:22:00,50.0,47.0,-100.00,SE,136,6.0,10.0,92,-99.99,,,-99.99,239.000000,,2013-06-26 15:22:00,
2013-06-26 08:30:00,51.0,48.0,-100.00,SE,137,8.0,13.0,91,-99.99,,,-99.99,314.000000,,2013-06-26 15:30:00,
2013-06-26 09:30:00,53.0,49.0,-100.00,SE,136,10.0,16.0,86,-99.99,,,-99.99,510.000000,,2013-06-26 16:30:00,
2013-06-26 10:30:00,56.0,50.0,-100.00,SSE,155,6.0,12.0,80,-99.99,,,-99.99,486.000000,,2013-06-26 17:30:00,
2013-06-26 11:22:00,56.0,50.0,-100.00,SSE,155,6.0,12.0,80,-99.99,,,-99.99,486.000000,,2013-06-26 18:22:00,
2013-06-26 11:30:00,58.0,50.0,-100.00,SSE,150,8.0,15.0,74,-99.99,,,-99.99,722.000000,,2013-06-26 18:30:00,
2013-06-26 12:30:00,61.0,52.0,-100.00,South,170,5.0,11.0,73,-99.99,,,-99.99,701.000000,,2013-06-26 19:30:00,
2013-06-26 13:22:00,61.0,52.0,-100.00,South,170,5.0,11.0,73,-99.99,,,-99.99,701.000000,,2013-06-26 20:22:00,
2013-06-26 13:30:00,60.0,52.0,-100.00,South,180,3.0,10.0,73,-99.99,,,-99.99,561.000000,,2013-06-26 20:30:00,
2013-06-26 14:30:00,61.0,52.0,-100.00,South,174,4.0,11.0,72,-99.99,,,-99.99,692.000000,,2013-06-26 21:30:00,
2013-06-26 15:21:00,61.0,52.0,-100.00,South,174,4.0,11.0,72,-99.99,,,-99.99,692.000000,,2013-06-26 22:21:00,
2013-06-26 15:30:00,61.0,53.0,-100.00,South,173,4.0,10.0,75,-99.99,,,-99.99,86.000000,,2013-06-26 22:30:00,
2013-06-26 16:30:00,61.0,53.0,-100.00,South,183,3.0,12.0,75,-99.99,,,-99.99,35.000000,,2013-06-26 23:30:00,
2013-06-26 17:30:00,61.0,53.0,-100.00,South,187,4.0,10.0,73,-99.99,,,-99.99,299.000000,,2013-06-27 00:30:00,
2013-06-26 18:21:00,61.0,53.0,-100.00,South,187,4.0,10.0,73,-99.99,,,-99.99,299.000000,,2013-06-27 01:21:00,
2013-06-26 19:30:00,58.0,53.0,-100.00,West,272,2.0,4.0,84,-99.99,,,-99.99,14.000000,,2013-06-27 02:30:00,
2013-06-26 20:21:00,58.0,53.0,-100.00,West,272,2.0,4.0,84,-99.99,,,-99.99,14.000000,,2013-06-27 03:21:00,
2013-06-26 20:30:00,56.0,54.0,-100.00,NNW,332,1.0,2.0,91,-99.99,,,-99.99,4.000000,,2013-06-27 03:30:00,
2013-06-26 21:22:00,56.0,54.0,-100.00,NNW,332,1.0,2.0,91,-99.99,,,-99.99,4.000000,,2013-06-27 04:22:00,
2013-06-26 21:30:00,56.0,53.0,-100.00,ESE,110,2.0,4.0,90,-99.99,,,-99.99,0.000000,,2013-06-27 04:30:00,
2013-06-26 22:30:00,56.0,51.0,-100.00,SSE,149,4.0,8.0,82,-99.99,,,-99.99,0.000000,,2013-06-27 05:30:00,
2013-06-26 23:22:00,56.0,51.0,-100.00,SSE,149,4.0,8.0,82,-99.99,,,-99.99,0.000000,,2013-06-27 06:22:00,
2013-06-26 23:30:00,56.0,50.0,-100.00,SSE,148,4.0,7.0,80,-99.99,,,-99.99,0.000000,,2013-06-27 06:30:00,